Time;durP1;ratioP1;P1;durP2;ratioP2;P2;SDS_P1;SDS_P2;PMS_P1;PMS_P2;Temp;Humidity;BMP_temperature;BMP_pressure;BME280_temperature;BME280_humidity;BME280_pressure;Samples;Min_cycle;Max_cycle;Signal;HPM_P1;HPM_P2
2022/09/16 00:00:13;;;;;;;;;;;;;;;;;;2132083;27;20368;-45
2022/09/16 00:01:14;;;;;;;;;;;;;;;;;;2131743;27;19967;-46
2022/09/16 00:02:15;;;;;;;;;;;;;;;;;;2131409;27;19923;-45
2022/09/16 00:03:16;;;;;;;;;;;;;;;;;;2131764;27;20395;-45
2022/09/16 00:04:17;;;;;;;;;;;;;;;;;;2131778;27;19927;-45
2022/09/16 00:05:17;;;;;;;;;;;;;;;;;;2131746;27;19927;-45
2022/09/16 00:06:18;;;;;;;;;;;;;;;;;;2131694;27;20394;-45
2022/09/16 00:07:19;;;;;;;;;;;;;;;;;;2131936;27;19923;-45
2022/09/16 00:08:20;;;;;;;;;;;;;;;;;;2131759;27;19946;-45
2022/09/16 00:09:21;;;;;;;;;;;;;;;;;;2131553;27;19930;-45
2022/09/16 00:10:22;;;;;;;;;;;;;;;;;;2131782;27;20374;-45
2022/09/16 00:11:23;;;;;;;;;;;;;;;;;;2128508;27;20022;-45
2022/09/16 00:12:23;;;;;;;;;;;;;;;;;;2123297;28;20330;-46
2022/09/16 00:13:24;;;;;;;;;;;;;;;;;;2123259;28;19986;-45
2022/09/16 00:14:25;;;;;;;;;;;;;;;;;;2123089;28;19924;-45
2022/09/16 00:15:26;;;;;;;;;;;;;;;;;;2123117;28;19955;-45
2022/09/16 00:16:27;;;;;;;;;;;;;;;;;;2123048;27;20022;-46
2022/09/16 00:17:28;;;;;;;;;;;;;;;;;;2123125;28;19967;-46
2022/09/16 00:18:29;;;;;;;;;;;;;;;;;;2123155;28;19923;-46
2022/09/16 00:19:30;;;;;;;;;;;;;;;;;;2123175;28;19930;-46
2022/09/16 00:20:31;;;;;;;;;;;;;;;;;;2123170;28;19970;-46
2022/09/16 00:21:32;;;;;;;;;;;;;;;;;;2123130;27;20399;-45
2022/09/16 00:22:33;;;;;;;;;;;;;;;;;;2123215;28;20010;-45
2022/09/16 00:23:34;;;;;;;;;;;;;;;;;;2123093;28;20411;-46
2022/09/16 00:24:34;;;;;;;;;;;;;;;;;;2123063;28;19930;-45
2022/09/16 00:25:35;;;;;;;;;;;;;;;;;;2123271;28;20396;-46
2022/09/16 00:26:37;;;;;;;;;;;;;;;;;;2122987;27;19923;-45
2022/09/16 00:27:38;;;;;;;;;;;;;;;;;;2123178;28;19923;-45
2022/09/16 00:28:39;;;;;;;;;;;;;;;;;;2123147;28;20473;-45
2022/09/16 00:29:40;;;;;;;;;;;;;;;;;;2123043;28;20273;-46
2022/09/16 00:30:40;;;;;;;;;;;;;;;;;;2123111;28;19930;-45
2022/09/16 00:31:41;;;;;;;;;;;;;;;;;;2123085;27;19924;-46
2022/09/16 00:32:42;;;;;;;;;;;;;;;;;;2123160;27;19924;-45
2022/09/16 00:33:43;;;;;;;;;;;;;;;;;;2124548;28;19927;-46
2022/09/16 00:34:44;;;;;;;;;;;;;;;;;;2124570;28;19967;-45
2022/09/16 00:35:45;;;;;;;;;;;;;;;;;;2124516;28;19924;-45
2022/09/16 00:36:46;;;;;;;;;;;;;;;;;;2124715;27;20357;-45
2022/09/16 00:37:46;;;;;;;;;;;;;;;;;;2124703;28;19959;-43
2022/09/16 00:38:47;;;;;;;;;;;;;;;;;;2124626;28;19930;-43
2022/09/16 00:39:48;;;;;;;;;;;;;;;;;;2124651;28;19923;-43
2022/09/16 00:40:49;;;;;;;;;;;;;;;;;;2124535;28;20299;-43
2022/09/16 00:41:50;;;;;;;;;;;;;;;;;;2124457;27;19970;-43
2022/09/16 00:42:50;;;;;;;;;;;;;;;;;;2124702;28;20324;-43
2022/09/16 00:43:51;;;;;;;;;;;;;;;;;;2124704;28;20266;-45
2022/09/16 00:44:52;;;;;;;;;;;;;;;;;;2124409;27;20376;-45
2022/09/16 00:45:53;;;;;;;;;;;;;;;;;;2124422;28;19928;-45
2022/09/16 00:46:54;;;;;;;;;;;;;;;;;;2129239;27;19930;-46
2022/09/16 00:47:55;;;;;;;;;;;;;;;;;;2133113;27;19954;-46
2022/09/16 00:48:56;;;;;;;;;;;;;;;;;;2133059;27;20049;-45
2022/09/16 00:49:58;;;;;;;;;;;;;;;;;;2133021;27;20351;-45
2022/09/16 00:50:58;;;;;;;;;;;;;;;;;;2132933;27;19923;-45
2022/09/16 00:52:00;;;;;;;;;;;;;;;;;;2133158;27;19923;-43
2022/09/16 00:53:01;;;;;;;;;;;;;;;;;;2133052;27;20145;-43
2022/09/16 00:54:02;;;;;;;;;;;;;;;;;;2132995;27;20409;-43
2022/09/16 00:55:03;;;;;;;;;;;;;;;;;;2133124;27;19927;-43
2022/09/16 00:56:04;;;;;;;;;;;;;;;;;;2132906;27;20288;-43
2022/09/16 00:57:05;;;;;;;;;;;;;;;;;;2132919;27;19923;-43
2022/09/16 00:58:06;;;;;;;;;;;;;;;;;;2132946;27;19927;-43
2022/09/16 00:59:07;;;;;;;;;;;;;;;;;;2132988;27;19934;-43
2022/09/16 01:00:09;;;;;;;;;;;;;;;;;;2132979;27;19923;-43
2022/09/16 01:01:10;;;;;;;;;;;;;;;;;;2132966;27;19930;-43
2022/09/16 01:02:11;;;;;;;;;;;;;;;;;;2132840;27;19923;-43
2022/09/16 01:03:12;;;;;;;;;;;;;;;;;;2132977;27;19926;-43
2022/09/16 01:04:13;;;;;;;;;;;;;;;;;;2133010;27;19967;-43
2022/09/16 01:05:14;;;;;;;;;;;;;;;;;;2133092;27;19923;-43
2022/09/16 01:06:14;;;;;;;;;;;;;;;;;;2133072;27;19974;-46
2022/09/16 01:07:15;;;;;;;;;;;;;;;;;;2132872;27;19923;-49
2022/09/16 01:08:17;;;;;;;;;;;;;;;;;;2133014;27;19999;-45
2022/09/16 01:09:18;;;;;;;;;;;;;;;;;;2132836;27;20391;-44
2022/09/16 01:10:19;;;;;;;;;;;;;;;;;;2132883;27;19923;-45
2022/09/16 01:11:19;;;;;;;;;;;;;;;;;;2129981;27;20022;-45
2022/09/16 01:12:20;;;;;;;;;;;;;;;;;;2124370;28;19923;-45
2022/09/16 01:13:21;;;;;;;;;;;;;;;;;;2124279;28;19965;-45
2022/09/16 01:15:41;;;;;;;;;;;;;;;;;;2124272;28;20368;-46
2022/09/16 01:16:42;;;;;;;;;;;;;;;;;;2124172;27;19931;-45
2022/09/16 01:17:43;;;;;;;;;;;;;;;;;;2124241;28;20420;-45
2022/09/16 01:18:44;;;;;;;;;;;;;;;;;;2124414;28;19979;-46
2022/09/16 01:19:45;;;;;;;;;;;;;;;;;;2124250;28;19968;-46
2022/09/16 01:20:45;;;;;;;;;;;;;;;;;;2124420;28;19929;-45
2022/09/16 01:21:46;;;;;;;;;;;;;;;;;;2124177;27;19927;-46
2022/09/16 01:22:47;;;;;;;;;;;;;;;;;;2124250;28;19980;-45
2022/09/16 01:23:48;;;;;;;;;;;;;;;;;;2124302;28;19927;-46
2022/09/16 01:24:49;;;;;;;;;;;;;;;;;;2124218;28;19945;-49
2022/09/16 01:25:50;;;;;;;;;;;;;;;;;;2124227;28;20394;-45
2022/09/16 01:26:50;;;;;;;;;;;;;;;;;;2124223;27;19923;-45
2022/09/16 01:27:51;;;;;;;;;;;;;;;;;;2124232;28;20157;-45
2022/09/16 01:28:52;;;;;;;;;;;;;;;;;;2124561;28;20019;-43
2022/09/16 01:29:53;;;;;;;;;;;;;;;;;;2124213;28;20021;-42
2022/09/16 01:30:54;;;;;;;;;;;;;;;;;;2124182;28;20351;-42
2022/09/16 01:31:55;;;;;;;;;;;;;;;;;;2124092;27;19923;-43
2022/09/16 01:32:55;;;;;;;;;;;;;;;;;;2124131;28;19923;-43
2022/09/16 01:33:56;;;;;;;;;;;;;;;;;;2124061;28;19923;-43
2022/09/16 01:34:57;;;;;;;;;;;;;;;;;;2124131;28;19930;-43
2022/09/16 01:35:58;;;;;;;;;;;;;;;;;;2124062;28;19930;-43
2022/09/16 01:36:59;;;;;;;;;;;;;;;;;;2124220;27;19978;-43
2022/09/16 01:38:00;;;;;;;;;;;;;;;;;;2124047;28;20068;-42
2022/09/16 01:39:00;;;;;;;;;;;;;;;;;;2124154;28;20438;-42
2022/09/16 01:40:01;;;;;;;;;;;;;;;;;;2124259;28;20011;-44
2022/09/16 01:41:02;;;;;;;;;;;;;;;;;;2124070;28;19931;-44
2022/09/16 01:42:03;;;;;;;;;;;;;;;;;;2124085;27;20076;-44
2022/09/16 01:43:04;;;;;;;;;;;;;;;;;;2128275;27;20414;-44
2022/09/16 01:44:05;;;;;;;;;;;;;;;;;;2132754;27;19923;-43
2022/09/16 01:45:06;;;;;;;;;;;;;;;;;;2131740;27;19927;-43
2022/09/16 01:46:07;;;;;;;;;;;;;;;;;;2132658;27;19927;-43
2022/09/16 01:47:08;;;;;;;;;;;;;;;;;;2132546;27;20333;-43
2022/09/16 01:48:09;;;;;;;;;;;;;;;;;;2133140;27;19975;-43
2022/09/16 01:49:09;;;;;;;;;;;;;;;;;;2132739;27;19923;-43
2022/09/16 01:50:10;;;;;;;;;;;;;;;;;;2132623;27;19923;-42
2022/09/16 01:51:11;;;;;;;;;;;;;;;;;;2132689;27;19923;-42
2022/09/16 01:52:12;;;;;;;;;;;;;;;;;;2132696;27;19954;-42
2022/09/16 01:53:13;;;;;;;;;;;;;;;;;;2132796;27;19944;-42
2022/09/16 01:54:14;;;;;;;;;;;;;;;;;;2132596;27;20143;-42
2022/09/16 01:55:14;;;;;;;;;;;;;;;;;;2132721;27;20383;-42
2022/09/16 01:56:15;;;;;;;;;;;;;;;;;;2132774;27;20337;-45
2022/09/16 01:57:16;;;;;;;;;;;;;;;;;;2132724;27;20026;-42
2022/09/16 01:58:17;;;;;;;;;;;;;;;;;;2132531;27;19923;-42
2022/09/16 01:59:18;;;;;;;;;;;;;;;;;;2132660;27;19923;-42
2022/09/16 02:00:19;;;;;;;;;;;;;;;;;;2132695;27;20317;-42
2022/09/16 02:01:22;;;;;;;;;;;;;;;;;;2132489;27;19923;-42
2022/09/16 02:02:24;;;;;;;;;;;;;;;;;;2132722;27;19966;-42
2022/09/16 02:03:25;;;;;;;;;;;;;;;;;;2132497;27;19923;-42
2022/09/16 02:04:26;;;;;;;;;;;;;;;;;;2132524;27;19923;-42
2022/09/16 02:05:27;;;;;;;;;;;;;;;;;;2132720;27;19962;-42
2022/09/16 02:06:28;;;;;;;;;;;;;;;;;;2132637;27;19923;-45
2022/09/16 02:07:29;;;;;;;;;;;;;;;;;;2132487;27;19923;-45
2022/09/16 02:08:30;;;;;;;;;;;;;;;;;;2132636;27;19924;-45
2022/09/16 02:09:31;;;;;;;;;;;;;;;;;;2132445;27;19927;-46
2022/09/16 02:10:32;;;;;;;;;;;;;;;;;;2132683;27;19972;-46
2022/09/16 02:11:33;;;;;;;;;;;;;;;;;;2127649;27;19927;-45
2022/09/16 02:12:34;;;;;;;;;;;;;;;;;;2123852;28;20010;-46
2022/09/16 02:13:34;;;;;;;;;;;;;;;;;;2123956;28;19924;-46
2022/09/16 02:14:35;;;;;;;;;;;;;;;;;;2123899;28;19923;-46
2022/09/16 02:15:36;;;;;;;;;;;;;;;;;;2124002;28;19925;-46
2022/09/16 02:16:37;;;;;;;;;;;;;;;;;;2123825;27;20380;-46
2022/09/16 02:17:38;;;;;;;;;;;;;;;;;;2123900;28;20010;-48
2022/09/16 02:18:39;;;;;;;;;;;;;;;;;;2123925;28;19923;-46
2022/09/16 02:19:40;;;;;;;;;;;;;;;;;;2124042;28;19927;-46
2022/09/16 02:20:41;;;;;;;;;;;;;;;;;;2123793;28;19924;-46
2022/09/16 02:21:42;;;;;;;;;;;;;;;;;;2123922;27;19930;-46
2022/09/16 02:22:46;;;;;;;;;;;;;;;;;;2123965;28;20014;-46
2022/09/16 02:23:47;;;;;;;;;;;;;;;;;;2123782;28;19966;-45
2022/09/16 02:24:47;;;;;;;;;;;;;;;;;;2123969;28;19965;-46
2022/09/16 02:25:48;;;;;;;;;;;;;;;;;;2123995;28;20318;-46
2022/09/16 02:26:49;;;;;;;;;;;;;;;;;;2123740;27;20022;-47
2022/09/16 02:27:50;;;;;;;;;;;;;;;;;;2123839;28;20010;-46
2022/09/16 02:28:51;;;;;;;;;;;;;;;;;;2123856;28;20369;-46
2022/09/16 02:29:52;;;;;;;;;;;;;;;;;;2124069;28;19959;-46
2022/09/16 02:30:53;;;;;;;;;;;;;;;;;;2123925;28;20307;-46
2022/09/16 02:31:54;;;;;;;;;;;;;;;;;;2123732;27;19924;-46
2022/09/16 02:32:56;;;;;;;;;;;;;;;;;;2123703;28;19923;-45
2022/09/16 02:33:57;;;;;;;;;;;;;;;;;;2123826;28;20372;-46
2022/09/16 02:34:57;;;;;;;;;;;;;;;;;;2123801;28;20447;-45
2022/09/16 02:35:58;;;;;;;;;;;;;;;;;;2123742;28;19923;-46
2022/09/16 02:36:59;;;;;;;;;;;;;;;;;;2123683;27;20412;-49
2022/09/16 02:38:00;;;;;;;;;;;;;;;;;;2123766;27;20312;-46
2022/09/16 02:39:01;;;;;;;;;;;;;;;;;;2125248;27;19985;-46
2022/09/16 02:40:04;;;;;;;;;;;;;;;;;;2132427;27;19923;-46
2022/09/16 02:41:05;;;;;;;;;;;;;;;;;;2132324;27;20351;-45
2022/09/16 02:42:06;;;;;;;;;;;;;;;;;;2132430;27;19970;-42
2022/09/16 02:43:08;;;;;;;;;;;;;;;;;;2132515;27;19945;-42
2022/09/16 02:44:09;;;;;;;;;;;;;;;;;;2132202;27;19950;-42
2022/09/16 02:45:09;;;;;;;;;;;;;;;;;;2132311;27;19930;-42
2022/09/16 02:46:10;;;;;;;;;;;;;;;;;;2132372;27;20368;-42
2022/09/16 02:47:11;;;;;;;;;;;;;;;;;;2132501;27;19923;-42
2022/09/16 02:48:12;;;;;;;;;;;;;;;;;;2132336;27;19931;-42
2022/09/16 02:49:13;;;;;;;;;;;;;;;;;;2132311;27;19927;-42
2022/09/16 02:50:14;;;;;;;;;;;;;;;;;;2132325;27;20307;-42
2022/09/16 02:51:15;;;;;;;;;;;;;;;;;;2132561;27;19923;-41
2022/09/16 02:52:16;;;;;;;;;;;;;;;;;;2132347;27;20295;-48
2022/09/16 02:53:16;;;;;;;;;;;;;;;;;;2132238;27;20364;-46
2022/09/16 02:54:17;;;;;;;;;;;;;;;;;;2132367;27;20367;-47
2022/09/16 02:55:18;;;;;;;;;;;;;;;;;;2132205;27;19923;-45
2022/09/16 02:56:19;;;;;;;;;;;;;;;;;;2132116;27;19973;-45
2022/09/16 02:57:20;;;;;;;;;;;;;;;;;;2132109;27;20299;-45
2022/09/16 02:58:21;;;;;;;;;;;;;;;;;;2132281;27;20014;-45
2022/09/16 02:59:21;;;;;;;;;;;;;;;;;;2132227;27;20404;-46
2022/09/16 03:00:22;;;;;;;;;;;;;;;;;;2132151;27;20321;-45
2022/09/16 03:01:23;;;;;;;;;;;;;;;;;;2132028;27;19927;-46
2022/09/16 03:02:24;;;;;;;;;;;;;;;;;;2132283;27;19923;-46
2022/09/16 03:03:25;;;;;;;;;;;;;;;;;;2132321;27;19964;-46
2022/09/16 03:04:26;;;;;;;;;;;;;;;;;;2132318;27;20007;-46
2022/09/16 03:05:26;;;;;;;;;;;;;;;;;;2132278;27;19923;-46
2022/09/16 03:06:28;;;;;;;;;;;;;;;;;;2132015;27;19923;-46
2022/09/16 03:07:29;;;;;;;;;;;;;;;;;;2132300;27;19924;-46
2022/09/16 03:08:30;;;;;;;;;;;;;;;;;;2132094;27;19991;-46
2022/09/16 03:09:31;;;;;;;;;;;;;;;;;;2132222;27;19927;-46
2022/09/16 03:10:32;;;;;;;;;;;;;;;;;;2132423;27;19979;-45
2022/09/16 03:11:33;;;;;;;;;;;;;;;;;;2127723;27;19928;-44
2022/09/16 03:12:35;;;;;;;;;;;;;;;;;;2123503;28;19923;-44
2022/09/16 03:13:36;;;;;;;;;;;;;;;;;;2123502;28;19923;-45
2022/09/16 03:14:36;;;;;;;;;;;;;;;;;;2123619;28;19927;-46
2022/09/16 03:15:37;;;;;;;;;;;;;;;;;;2123450;28;19973;-45
2022/09/16 03:16:38;;;;;;;;;;;;;;;;;;2123517;27;19968;-45
2022/09/16 03:17:43;;;;;;;;;;;;;;;;;;2123509;28;20364;-45
2022/09/16 03:18:43;;;;;;;;;;;;;;;;;;2123588;28;19966;-46
2022/09/16 03:19:44;;;;;;;;;;;;;;;;;;2123473;28;19930;-46
2022/09/16 03:20:45;;;;;;;;;;;;;;;;;;2123668;28;19930;-48
2022/09/16 03:21:46;;;;;;;;;;;;;;;;;;2123457;27;19931;-46
2022/09/16 03:22:47;;;;;;;;;;;;;;;;;;2123460;28;20372;-47
2022/09/16 03:23:48;;;;;;;;;;;;;;;;;;2123404;28;19924;-47
2022/09/16 03:24:49;;;;;;;;;;;;;;;;;;2123555;28;20010;-46
2022/09/16 03:25:50;;;;;;;;;;;;;;;;;;2123622;28;20398;-46
2022/09/16 03:26:50;;;;;;;;;;;;;;;;;;2123312;27;19953;-47
2022/09/16 03:27:51;;;;;;;;;;;;;;;;;;2123543;28;19951;-46
2022/09/16 03:28:53;;;;;;;;;;;;;;;;;;2123376;28;19931;-46
2022/09/16 03:29:54;;;;;;;;;;;;;;;;;;2123556;28;19923;-46
2022/09/16 03:30:55;;;;;;;;;;;;;;;;;;2123462;28;19972;-46
2022/09/16 03:31:56;;;;;;;;;;;;;;;;;;2123441;27;19923;-47
2022/09/16 03:32:57;;;;;;;;;;;;;;;;;;2123408;28;19923;-47
2022/09/16 03:33:58;;;;;;;;;;;;;;;;;;2123234;27;20320;-46
2022/09/16 03:34:58;;;;;;;;;;;;;;;;;;2123341;28;19931;-46
2022/09/16 03:35:59;;;;;;;;;;;;;;;;;;2131012;27;19930;-46
2022/09/16 03:37:01;;;;;;;;;;;;;;;;;;2132248;27;20395;-44
2022/09/16 03:38:02;;;;;;;;;;;;;;;;;;2131968;27;19927;-47
2022/09/16 03:39:03;;;;;;;;;;;;;;;;;;2131843;27;20033;-46
2022/09/16 03:40:03;;;;;;;;;;;;;;;;;;2131919;27;19933;-46
2022/09/16 03:41:04;;;;;;;;;;;;;;;;;;2132068;27;20026;-46
2022/09/16 03:42:06;;;;;;;;;;;;;;;;;;2131868;27;19923;-46
2022/09/16 03:43:07;;;;;;;;;;;;;;;;;;2132048;27;19945;-47
2022/09/16 03:44:08;;;;;;;;;;;;;;;;;;2131940;27;20013;-47
2022/09/16 03:45:09;;;;;;;;;;;;;;;;;;2132026;27;19927;-46
2022/09/16 03:46:10;;;;;;;;;;;;;;;;;;2131886;27;19923;-46
2022/09/16 03:47:11;;;;;;;;;;;;;;;;;;2131787;27;19937;-46
2022/09/16 03:48:12;;;;;;;;;;;;;;;;;;2131975;27;19930;-47
2022/09/16 03:49:13;;;;;;;;;;;;;;;;;;2131816;27;19923;-46
2022/09/16 03:50:13;;;;;;;;;;;;;;;;;;2132005;27;19927;-49
2022/09/16 03:51:14;;;;;;;;;;;;;;;;;;2131797;27;20296;-47
2022/09/16 03:52:17;;;;;;;;;;;;;;;;;;2132003;27;20023;-46
2022/09/16 03:53:18;;;;;;;;;;;;;;;;;;2131818;27;19945;-47
2022/09/16 03:54:20;;;;;;;;;;;;;;;;;;2131751;27;20368;-46
2022/09/16 03:55:21;;;;;;;;;;;;;;;;;;2131877;27;19923;-46
2022/09/16 03:56:21;;;;;;;;;;;;;;;;;;2132172;27;20296;-43
2022/09/16 03:57:22;;;;;;;;;;;;;;;;;;2132330;27;19930;-46
2022/09/16 03:58:23;;;;;;;;;;;;;;;;;;2131991;27;20332;-46
2022/09/16 03:59:24;;;;;;;;;;;;;;;;;;2131893;27;19927;-46
2022/09/16 04:00:25;;;;;;;;;;;;;;;;;;2131722;27;19934;-47
2022/09/16 04:01:26;;;;;;;;;;;;;;;;;;2131821;27;19930;-46
2022/09/16 04:02:27;;;;;;;;;;;;;;;;;;2132280;27;19929;-47
2022/09/16 04:03:28;;;;;;;;;;;;;;;;;;2131845;27;19930;-46
2022/09/16 04:04:33;;;;;;;;;;;;;;;;;;2131924;27;19947;-47
2022/09/16 04:05:34;;;;;;;;;;;;;;;;;;2131884;27;20039;-46
2022/09/16 04:06:34;;;;;;;;;;;;;;;;;;2131744;27;19923;-46
2022/09/16 04:07:35;;;;;;;;;;;;;;;;;;2131946;27;20367;-42
2022/09/16 04:08:38;;;;;;;;;;;;;;;;;;2133156;27;19930;-43
2022/09/16 04:09:39;;;;;;;;;;;;;;;;;;2133457;27;19923;-43
2022/09/16 04:10:40;;;;;;;;;;;;;;;;;;2133432;27;19930;-43
2022/09/16 04:11:41;;;;;;;;;;;;;;;;;;2127422;27;20437;-42
2022/09/16 04:12:41;;;;;;;;;;;;;;;;;;2124871;28;19924;-42
2022/09/16 04:13:42;;;;;;;;;;;;;;;;;;2124719;28;19923;-43
2022/09/16 04:14:43;;;;;;;;;;;;;;;;;;2124767;28;19936;-42
2022/09/16 04:15:44;;;;;;;;;;;;;;;;;;2124626;28;19992;-43
2022/09/16 04:16:45;;;;;;;;;;;;;;;;;;2129023;27;19923;-48
2022/09/16 04:17:46;;;;;;;;;;;;;;;;;;2133557;27;19958;-47
2022/09/16 04:18:46;;;;;;;;;;;;;;;;;;2133189;27;19927;-46
2022/09/16 04:19:47;;;;;;;;;;;;;;;;;;2133305;27;20407;-46
2022/09/16 04:20:48;;;;;;;;;;;;;;;;;;2133187;27;19923;-47
2022/09/16 04:21:49;;;;;;;;;;;;;;;;;;2133263;27;20280;-46
2022/09/16 04:22:50;;;;;;;;;;;;;;;;;;2133142;27;19993;-46
2022/09/16 04:23:51;;;;;;;;;;;;;;;;;;2133581;27;19919;-47
2022/09/16 04:24:51;;;;;;;;;;;;;;;;;;2133142;27;20368;-46
2022/09/16 04:25:52;;;;;;;;;;;;;;;;;;2133176;27;19966;-46
2022/09/16 04:26:53;;;;;;;;;;;;;;;;;;2133094;27;20393;-46
2022/09/16 04:27:54;;;;;;;;;;;;;;;;;;2133322;27;19923;-42
2022/09/16 04:28:55;;;;;;;;;;;;;;;;;;2133290;27;19927;-42
2022/09/16 04:29:57;;;;;;;;;;;;;;;;;;2131932;27;19952;-43
2022/09/16 04:30:58;;;;;;;;;;;;;;;;;;2124591;28;20420;-42
2022/09/16 04:31:59;;;;;;;;;;;;;;;;;;2129989;27;19924;-43
2022/09/16 04:33:00;;;;;;;;;;;;;;;;;;2133100;27;19923;-42
2022/09/16 04:34:00;;;;;;;;;;;;;;;;;;2133063;27;19971;-42
2022/09/16 04:35:01;;;;;;;;;;;;;;;;;;2133229;27;19948;-42
2022/09/16 04:36:02;;;;;;;;;;;;;;;;;;2133267;27;19945;-42
2022/09/16 04:37:03;;;;;;;;;;;;;;;;;;2133248;27;20009;-43
2022/09/16 04:38:04;;;;;;;;;;;;;;;;;;2133213;27;19970;-42
2022/09/16 04:39:05;;;;;;;;;;;;;;;;;;2133202;27;20292;-42
2022/09/16 04:40:06;;;;;;;;;;;;;;;;;;2133215;27;20030;-42
2022/09/16 04:41:07;;;;;;;;;;;;;;;;;;2133251;27;19978;-42
2022/09/16 04:42:11;;;;;;;;;;;;;;;;;;2133164;27;20280;-42
2022/09/16 04:43:12;;;;;;;;;;;;;;;;;;2133067;27;19930;-42
2022/09/16 04:44:13;;;;;;;;;;;;;;;;;;2133161;27;20283;-42
2022/09/16 04:45:14;;;;;;;;;;;;;;;;;;2133095;27;19927;-42
2022/09/16 04:46:15;;;;;;;;;;;;;;;;;;2133154;27;19923;-42
2022/09/16 04:47:16;;;;;;;;;;;;;;;;;;2133292;27;19963;-46
2022/09/16 04:48:16;;;;;;;;;;;;;;;;;;2133406;27;20269;-42
2022/09/16 04:49:17;;;;;;;;;;;;;;;;;;2133077;27;19945;-42
2022/09/16 04:50:18;;;;;;;;;;;;;;;;;;2133401;27;19924;-42
2022/09/16 04:51:19;;;;;;;;;;;;;;;;;;2132990;27;20307;-42
2022/09/16 04:52:20;;;;;;;;;;;;;;;;;;2132986;27;19937;-42
2022/09/16 04:53:21;;;;;;;;;;;;;;;;;;2133002;27;19923;-42
2022/09/16 04:54:22;;;;;;;;;;;;;;;;;;2133130;27;19923;-42
2022/09/16 04:55:23;;;;;;;;;;;;;;;;;;2133163;27;20360;-42
2022/09/16 04:56:23;;;;;;;;;;;;;;;;;;2132928;27;19923;-42
2022/09/16 04:57:24;;;;;;;;;;;;;;;;;;2133095;27;20007;-42
2022/09/16 04:58:25;;;;;;;;;;;;;;;;;;2133234;27;19930;-42
2022/09/16 04:59:26;;;;;;;;;;;;;;;;;;2133111;27;19924;-42
2022/09/16 05:00:27;;;;;;;;;;;;;;;;;;2133052;27;19923;-43
2022/09/16 05:01:28;;;;;;;;;;;;;;;;;;2133043;27;20344;-42
2022/09/16 05:02:29;;;;;;;;;;;;;;;;;;2132991;27;19930;-42
2022/09/16 05:03:30;;;;;;;;;;;;;;;;;;2132886;27;19971;-42
2022/09/16 05:04:30;;;;;;;;;;;;;;;;;;2133118;27;19923;-42
2022/09/16 05:05:31;;;;;;;;;;;;;;;;;;2132886;27;19995;-43
2022/09/16 05:06:32;;;;;;;;;;;;;;;;;;2132878;27;19994;-42
2022/09/16 05:07:33;;;;;;;;;;;;;;;;;;2133081;27;19960;-46
2022/09/16 05:08:34;;;;;;;;;;;;;;;;;;2133369;27;19934;-43
2022/09/16 05:09:36;;;;;;;;;;;;;;;;;;2132961;27;19923;-42
2022/09/16 05:10:37;;;;;;;;;;;;;;;;;;2132863;27;19923;-42
2022/09/16 05:11:38;;;;;;;;;;;;;;;;;;2127354;27;19963;-43
2022/09/16 05:12:38;;;;;;;;;;;;;;;;;;2124204;28;19935;-42
2022/09/16 05:13:39;;;;;;;;;;;;;;;;;;2124397;28;19923;-42
2022/09/16 05:14:40;;;;;;;;;;;;;;;;;;2124312;28;20258;-42
2022/09/16 05:15:41;;;;;;;;;;;;;;;;;;2124444;28;19923;-42
2022/09/16 05:16:42;;;;;;;;;;;;;;;;;;2124229;27;19923;-42
2022/09/16 05:17:43;;;;;;;;;;;;;;;;;;2124443;28;20451;-42
2022/09/16 05:18:52;;;;;;;;;;;;;;;;;;2124396;27;20388;-42
2022/09/16 05:19:53;;;;;;;;;;;;;;;;;;2122991;28;19927;-43
2022/09/16 05:20:53;;;;;;;;;;;;;;;;;;2124257;28;19927;-43
2022/09/16 05:21:54;;;;;;;;;;;;;;;;;;2124186;27;19927;-42
2022/09/16 05:22:55;;;;;;;;;;;;;;;;;;2124470;28;20388;-46
2022/09/16 05:23:56;;;;;;;;;;;;;;;;;;2124201;28;20019;-47
2022/09/16 05:24:57;;;;;;;;;;;;;;;;;;2124246;28;20284;-47
2022/09/16 05:25:58;;;;;;;;;;;;;;;;;;2124196;28;19923;-46
2022/09/16 05:26:59;;;;;;;;;;;;;;;;;;2124239;27;19923;-48
2022/09/16 05:28:00;;;;;;;;;;;;;;;;;;2127700;27;19930;-47
2022/09/16 05:29:01;;;;;;;;;;;;;;;;;;2132887;27;19976;-47
2022/09/16 05:30:02;;;;;;;;;;;;;;;;;;2132835;27;19923;-46
2022/09/16 05:31:03;;;;;;;;;;;;;;;;;;2132743;27;19945;-46
2022/09/16 05:32:04;;;;;;;;;;;;;;;;;;2132652;27;19950;-46
2022/09/16 05:33:04;;;;;;;;;;;;;;;;;;2132946;27;19923;-42
2022/09/16 05:34:05;;;;;;;;;;;;;;;;;;2132738;27;19970;-42
2022/09/16 05:35:06;;;;;;;;;;;;;;;;;;2132730;27;20603;-43
2022/09/16 05:36:07;;;;;;;;;;;;;;;;;;2132910;27;19934;-43
2022/09/16 05:37:08;;;;;;;;;;;;;;;;;;2132605;27;20410;-43
2022/09/16 05:38:09;;;;;;;;;;;;;;;;;;2133134;27;19937;-46
2022/09/16 05:39:10;;;;;;;;;;;;;;;;;;2132747;27;20363;-46
2022/09/16 05:40:23;;;;;;;;;;;;;;;;;;2133031;27;20364;-43
2022/09/16 05:41:24;;;;;;;;;;;;;;;;;;2132757;27;19959;-43
2022/09/16 05:42:25;;;;;;;;;;;;;;;;;;2132687;27;20447;-43
2022/09/16 05:43:26;;;;;;;;;;;;;;;;;;2132633;27;19966;-43
2022/09/16 05:44:26;;;;;;;;;;;;;;;;;;2133037;27;19973;-42
2022/09/16 05:45:27;;;;;;;;;;;;;;;;;;2132922;27;20321;-46
2022/09/16 05:46:32;;;;;;;;;;;;;;;;;;2132692;27;19933;-46
2022/09/16 05:47:33;;;;;;;;;;;;;;;;;;2132830;27;20013;-46
2022/09/16 05:48:34;;;;;;;;;;;;;;;;;;2132610;27;20041;-47
2022/09/16 05:49:36;;;;;;;;;;;;;;;;;;2133094;27;20021;-47
2022/09/16 05:50:37;;;;;;;;;;;;;;;;;;2132671;27;19934;-47
2022/09/16 05:51:38;;;;;;;;;;;;;;;;;;2132767;27;19923;-48
2022/09/16 05:52:38;;;;;;;;;;;;;;;;;;2132664;27;19974;-46
2022/09/16 05:53:39;;;;;;;;;;;;;;;;;;2132743;27;19923;-46
2022/09/16 05:54:40;;;;;;;;;;;;;;;;;;2132589;27;19923;-46
2022/09/16 05:55:41;;;;;;;;;;;;;;;;;;2132756;27;19923;-45
2022/09/16 05:56:42;;;;;;;;;;;;;;;;;;2132667;27;19985;-46
2022/09/16 05:57:43;;;;;;;;;;;;;;;;;;2132569;27;19923;-46
2022/09/16 05:58:44;;;;;;;;;;;;;;;;;;2132677;27;20280;-46
2022/09/16 05:59:44;;;;;;;;;;;;;;;;;;2132967;27;19923;-46
2022/09/16 06:00:45;;;;;;;;;;;;;;;;;;2132548;27;19930;-45
2022/09/16 06:01:46;;;;;;;;;;;;;;;;;;2132603;27;20022;-46
2022/09/16 06:02:47;;;;;;;;;;;;;;;;;;2132904;27;20022;-46
2022/09/16 06:03:48;;;;;;;;;;;;;;;;;;2132534;27;19935;-46
2022/09/16 06:04:49;;;;;;;;;;;;;;;;;;2132568;27;19933;-47
2022/09/16 06:05:50;;;;;;;;;;;;;;;;;;2132648;27;20463;-46
2022/09/16 06:06:51;;;;;;;;;;;;;;;;;;2132440;27;19927;-46
2022/09/16 06:07:52;;;;;;;;;;;;;;;;;;2132727;27;19923;-47
2022/09/16 06:08:53;;;;;;;;;;;;;;;;;;2132462;27;19971;-46
2022/09/16 06:09:53;;;;;;;;;;;;;;;;;;2132675;27;20215;-46
2022/09/16 06:10:54;;;;;;;;;;;;;;;;;;2132621;27;20376;-43
2022/09/16 06:11:55;;;;;;;;;;;;;;;;;;2124507;27;20019;-41
2022/09/16 06:13:02;;;;;;;;;;;;;;;;;;2124080;28;19923;-47
2022/09/16 06:14:03;;;;;;;;;;;;;;;;;;2124023;28;19927;-47
2022/09/16 06:15:03;;;;;;;;;;;;;;;;;;2123861;28;20023;-46
2022/09/16 06:16:04;;;;;;;;;;;;;;;;;;2123898;28;19934;-46
2022/09/16 06:17:05;;;;;;;;;;;;;;;;;;2123767;27;20380;-46
2022/09/16 06:18:07;;;;;;;;;;;;;;;;;;2124010;28;19924;-44
2022/09/16 06:19:09;;;;;;;;;;;;;;;;;;2123858;28;20380;-44
2022/09/16 06:20:12;;;;;;;;;;;;;;;;;;2123818;28;19924;-44
2022/09/16 06:21:13;;;;;;;;;;;;;;;;;;2123915;28;20387;-44
2022/09/16 06:22:14;;;;;;;;;;;;;;;;;;2123692;27;19927;-46
2022/09/16 06:23:15;;;;;;;;;;;;;;;;;;2123900;27;19924;-44
2022/09/16 06:24:16;;;;;;;;;;;;;;;;;;2127735;27;19923;-44
2022/09/16 06:25:17;;;;;;;;;;;;;;;;;;2132411;27;19968;-45
2022/09/16 06:26:18;;;;;;;;;;;;;;;;;;2132473;27;19923;-46
2022/09/16 06:27:19;;;;;;;;;;;;;;;;;;2132376;27;20417;-46
2022/09/16 06:28:19;;;;;;;;;;;;;;;;;;2132563;27;20006;-42
2022/09/16 06:29:20;;;;;;;;;;;;;;;;;;2132352;27;20334;-43
2022/09/16 06:30:21;;;;;;;;;;;;;;;;;;2132522;27;20446;-43
2022/09/16 06:31:22;;;;;;;;;;;;;;;;;;2131764;27;19930;-42
2022/09/16 06:32:23;;;;;;;;;;;;;;;;;;2132357;27;19930;-43
2022/09/16 06:33:23;;;;;;;;;;;;;;;;;;2132421;27;19934;-43
2022/09/16 06:34:25;;;;;;;;;;;;;;;;;;2132380;27;20018;-43
2022/09/16 06:35:26;;;;;;;;;;;;;;;;;;2132321;27;19923;-43
2022/09/16 06:36:27;;;;;;;;;;;;;;;;;;2132195;27;19923;-42
2022/09/16 06:37:28;;;;;;;;;;;;;;;;;;2132395;27;20399;-42
2022/09/16 06:38:29;;;;;;;;;;;;;;;;;;2132316;27;19923;-43
2022/09/16 06:39:30;;;;;;;;;;;;;;;;;;2132354;27;19936;-43
2022/09/16 06:40:30;;;;;;;;;;;;;;;;;;2132647;27;19938;-43
2022/09/16 06:41:32;;;;;;;;;;;;;;;;;;2132586;27;19951;-44
2022/09/16 06:42:32;;;;;;;;;;;;;;;;;;2132280;27;20300;-43
2022/09/16 06:43:33;;;;;;;;;;;;;;;;;;2132420;27;19924;-43
2022/09/16 06:44:34;;;;;;;;;;;;;;;;;;2132543;27;20436;-43
2022/09/16 06:45:35;;;;;;;;;;;;;;;;;;2132298;27;19974;-44
2022/09/16 06:46:36;;;;;;;;;;;;;;;;;;2132273;27;19937;-43
2022/09/16 06:47:37;;;;;;;;;;;;;;;;;;2132468;27;19946;-46
2022/09/16 06:48:38;;;;;;;;;;;;;;;;;;2132332;27;20018;-46
2022/09/16 06:49:38;;;;;;;;;;;;;;;;;;2132314;27;19930;-45
2022/09/16 06:50:40;;;;;;;;;;;;;;;;;;2132415;27;20060;-49
2022/09/16 06:51:40;;;;;;;;;;;;;;;;;;2132144;27;20241;-46
2022/09/16 06:52:41;;;;;;;;;;;;;;;;;;2132231;27;19930;-46
2022/09/16 06:53:42;;;;;;;;;;;;;;;;;;2132161;27;19958;-47
2022/09/16 06:54:43;;;;;;;;;;;;;;;;;;2132452;27;19923;-45
2022/09/16 06:55:44;;;;;;;;;;;;;;;;;;2132186;27;19927;-46
2022/09/16 06:56:45;;;;;;;;;;;;;;;;;;2132222;27;19923;-45
2022/09/16 06:57:46;;;;;;;;;;;;;;;;;;2132151;27;19968;-45